sensor_id;sensor_type;location;lat;lon;timestamp;P1;durP1;ratioP1;P2;durP2;ratioP2
13985;SDS011;7067;51.832;8.296;2022-09-13T00:01:40;8.48;;;7.70;;
13985;SDS011;7067;51.832;8.296;2022-09-13T00:04:06;7.38;;;6.72;;
13985;SDS011;7067;51.832;8.296;2022-09-13T00:06:31;7.43;;;6.72;;
13985;SDS011;7067;51.832;8.296;2022-09-13T00:08:56;7.03;;;6.40;;
13985;SDS011;7067;51.832;8.296;2022-09-13T00:11:23;7.75;;;6.72;;
13985;SDS011;7067;51.832;8.296;2022-09-13T00:13:50;6.80;;;6.30;;
13985;SDS011;7067;51.832;8.296;2022-09-13T00:16:17;7.45;;;6.85;;
13985;SDS011;7067;51.832;8.296;2022-09-13T00:18:44;6.57;;;6.00;;
13985;SDS011;7067;51.832;8.296;2022-09-13T00:21:11;6.07;;;5.57;;
13985;SDS011;7067;51.832;8.296;2022-09-13T00:23:38;5.90;;;5.30;;
13985;SDS011;7067;51.832;8.296;2022-09-13T00:26:07;6.40;;;5.90;;
13985;SDS011;7067;51.832;8.296;2022-09-13T00:28:35;5.78;;;5.25;;
13985;SDS011;7067;51.832;8.296;2022-09-13T00:31:02;6.63;;;5.72;;
13985;SDS011;7067;51.832;8.296;2022-09-13T00:33:28;6.43;;;5.88;;
13985;SDS011;7067;51.832;8.296;2022-09-13T00:35:54;6.40;;;5.80;;
13985;SDS011;7067;51.832;8.296;2022-09-13T00:38:19;6.65;;;6.05;;
13985;SDS011;7067;51.832;8.296;2022-09-13T00:40:44;9.25;;;6.57;;
13985;SDS011;7067;51.832;8.296;2022-09-13T00:43:16;6.13;;;5.60;;
13985;SDS011;7067;51.832;8.296;2022-09-13T00:45:43;6.40;;;5.90;;
13985;SDS011;7067;51.832;8.296;2022-09-13T00:48:10;7.20;;;6.28;;
13985;SDS011;7067;51.832;8.296;2022-09-13T00:50:42;6.68;;;6.15;;
13985;SDS011;7067;51.832;8.296;2022-09-13T00:55:41;6.93;;;6.07;;
13985;SDS011;7067;51.832;8.296;2022-09-13T00:58:09;5.82;;;5.32;;
13985;SDS011;7067;51.832;8.296;2022-09-13T01:00:37;6.17;;;5.70;;
13985;SDS011;7067;51.832;8.296;2022-09-13T01:03:04;6.30;;;5.72;;
13985;SDS011;7067;51.832;8.296;2022-09-13T01:05:34;6.50;;;5.88;;
13985;SDS011;7067;51.832;8.296;2022-09-13T01:08:01;5.57;;;5.18;;
13985;SDS011;7067;51.832;8.296;2022-09-13T01:10:27;6.03;;;5.22;;
13985;SDS011;7067;51.832;8.296;2022-09-13T01:15:26;5.65;;;5.25;;
13985;SDS011;7067;51.832;8.296;2022-09-13T01:17:51;5.90;;;4.95;;
13985;SDS011;7067;51.832;8.296;2022-09-13T01:20:17;5.75;;;5.45;;
13985;SDS011;7067;51.832;8.296;2022-09-13T01:25:44;5.82;;;5.20;;
13985;SDS011;7067;51.832;8.296;2022-09-13T01:28:36;5.07;;;4.60;;
13985;SDS011;7067;51.832;8.296;2022-09-13T01:31:07;7.57;;;4.82;;
13985;SDS011;7067;51.832;8.296;2022-09-13T01:44:14;6.80;;;4.50;;
13985;SDS011;7067;51.832;8.296;2022-09-13T01:49:45;8.55;;;4.70;;
13985;SDS011;7067;51.832;8.296;2022-09-13T01:52:20;5.28;;;4.65;;
13985;SDS011;7067;51.832;8.296;2022-09-13T01:55:04;4.47;;;4.07;;
13985;SDS011;7067;51.832;8.296;2022-09-13T01:57:34;4.90;;;3.90;;
13985;SDS011;7067;51.832;8.296;2022-09-13T02:00:03;4.57;;;4.28;;
13985;SDS011;7067;51.832;8.296;2022-09-13T02:08:14;4.55;;;4.25;;
13985;SDS011;7067;51.832;8.296;2022-09-13T02:10:52;4.90;;;4.50;;
13985;SDS011;7067;51.832;8.296;2022-09-13T02:13:23;5.43;;;4.53;;
13985;SDS011;7067;51.832;8.296;2022-09-13T02:15:53;4.90;;;4.38;;
13985;SDS011;7067;51.832;8.296;2022-09-13T02:18:25;4.82;;;4.43;;
13985;SDS011;7067;51.832;8.296;2022-09-13T02:20:54;4.05;;;3.70;;
13985;SDS011;7067;51.832;8.296;2022-09-13T02:23:24;4.40;;;4.07;;
13985;SDS011;7067;51.832;8.296;2022-09-13T02:25:55;3.70;;;3.33;;
13985;SDS011;7067;51.832;8.296;2022-09-13T02:28:23;4.00;;;3.63;;
13985;SDS011;7067;51.832;8.296;2022-09-13T02:30:52;4.10;;;3.80;;
13985;SDS011;7067;51.832;8.296;2022-09-13T02:33:23;4.15;;;3.83;;
13985;SDS011;7067;51.832;8.296;2022-09-13T02:35:56;3.80;;;3.60;;
13985;SDS011;7067;51.832;8.296;2022-09-13T02:38:27;5.03;;;4.55;;
13985;SDS011;7067;51.832;8.296;2022-09-13T02:43:35;3.60;;;3.40;;
13985;SDS011;7067;51.832;8.296;2022-09-13T02:48:57;3.70;;;3.40;;
13985;SDS011;7067;51.832;8.296;2022-09-13T02:51:43;4.43;;;4.05;;
13985;SDS011;7067;51.832;8.296;2022-09-13T02:57:08;3.75;;;3.42;;
13985;SDS011;7067;51.832;8.296;2022-09-13T02:59:37;4.90;;;4.05;;
13985;SDS011;7067;51.832;8.296;2022-09-13T03:02:04;5.22;;;4.25;;
13985;SDS011;7067;51.832;8.296;2022-09-13T03:04:31;4.85;;;4.55;;
13985;SDS011;7067;51.832;8.296;2022-09-13T03:06:57;4.85;;;4.55;;
13985;SDS011;7067;51.832;8.296;2022-09-13T03:09:22;6.38;;;5.68;;
13985;SDS011;7067;51.832;8.296;2022-09-13T03:17:28;5.25;;;4.80;;
13985;SDS011;7067;51.832;8.296;2022-09-13T03:20:11;5.70;;;5.30;;
13985;SDS011;7067;51.832;8.296;2022-09-13T03:30:38;7.00;;;5.95;;
13985;SDS011;7067;51.832;8.296;2022-09-13T03:35:51;7.20;;;6.70;;
13985;SDS011;7067;51.832;8.296;2022-09-13T03:38:20;8.85;;;6.28;;
13985;SDS011;7067;51.832;8.296;2022-09-13T03:40:59;7.60;;;6.95;;
13985;SDS011;7067;51.832;8.296;2022-09-13T03:43:32;7.28;;;6.65;;
13985;SDS011;7067;51.832;8.296;2022-09-13T03:46:06;7.55;;;6.60;;
13985;SDS011;7067;51.832;8.296;2022-09-13T03:48:34;7.15;;;6.45;;
13985;SDS011;7067;51.832;8.296;2022-09-13T03:51:01;7.35;;;6.65;;
13985;SDS011;7067;51.832;8.296;2022-09-13T03:53:28;7.15;;;6.65;;
13985;SDS011;7067;51.832;8.296;2022-09-13T03:55:54;7.32;;;6.75;;
13985;SDS011;7067;51.832;8.296;2022-09-13T03:58:20;6.40;;;5.90;;
13985;SDS011;7067;51.832;8.296;2022-09-13T04:00:46;6.65;;;6.07;;
13985;SDS011;7067;51.832;8.296;2022-09-13T04:03:11;6.47;;;5.88;;
13985;SDS011;7067;51.832;8.296;2022-09-13T04:05:37;6.88;;;6.28;;
13985;SDS011;7067;51.832;8.296;2022-09-13T04:08:03;6.75;;;6.28;;
13985;SDS011;7067;51.832;8.296;2022-09-13T04:10:29;5.88;;;5.47;;
13985;SDS011;7067;51.832;8.296;2022-09-13T04:12:56;6.40;;;5.90;;
13985;SDS011;7067;51.832;8.296;2022-09-13T04:15:22;6.57;;;6.05;;
13985;SDS011;7067;51.832;8.296;2022-09-13T04:17:48;10.48;;;5.45;;
13985;SDS011;7067;51.832;8.296;2022-09-13T04:20:14;4.85;;;4.40;;
13985;SDS011;7067;51.832;8.296;2022-09-13T04:22:39;4.43;;;4.03;;
13985;SDS011;7067;51.832;8.296;2022-09-13T04:25:05;4.22;;;3.55;;
13985;SDS011;7067;51.832;8.296;2022-09-13T04:27:30;4.07;;;3.25;;
13985;SDS011;7067;51.832;8.296;2022-09-13T04:29:56;3.63;;;3.35;;
13985;SDS011;7067;51.832;8.296;2022-09-13T04:32:21;3.00;;;2.78;;
13985;SDS011;7067;51.832;8.296;2022-09-13T04:34:46;2.65;;;2.45;;
13985;SDS011;7067;51.832;8.296;2022-09-13T04:37:12;2.90;;;2.70;;
13985;SDS011;7067;51.832;8.296;2022-09-13T04:39:37;3.30;;;2.92;;
13985;SDS011;7067;51.832;8.296;2022-09-13T04:42:02;4.22;;;2.47;;
13985;SDS011;7067;51.832;8.296;2022-09-13T04:44:28;4.90;;;3.10;;
13985;SDS011;7067;51.832;8.296;2022-09-13T04:46:54;3.05;;;2.85;;
13985;SDS011;7067;51.832;8.296;2022-09-13T04:49:19;3.58;;;2.72;;
13985;SDS011;7067;51.832;8.296;2022-09-13T04:51:45;3.83;;;3.47;;
13985;SDS011;7067;51.832;8.296;2022-09-13T04:54:11;8.43;;;3.58;;
13985;SDS011;7067;51.832;8.296;2022-09-13T04:56:37;3.72;;;3.38;;
13985;SDS011;7067;51.832;8.296;2022-09-13T04:59:02;4.28;;;2.97;;
13985;SDS011;7067;51.832;8.296;2022-09-13T05:01:28;4.38;;;2.80;;
13985;SDS011;7067;51.832;8.296;2022-09-13T05:03:54;4.15;;;3.22;;
13985;SDS011;7067;51.832;8.296;2022-09-13T05:06:19;4.50;;;2.40;;
13985;SDS011;7067;51.832;8.296;2022-09-13T05:08:51;4.30;;;2.58;;
13985;SDS011;7067;51.832;8.296;2022-09-13T05:11:19;3.17;;;2.67;;
13985;SDS011;7067;51.832;8.296;2022-09-13T05:13:51;4.55;;;3.30;;
13985;SDS011;7067;51.832;8.296;2022-09-13T05:16:19;3.35;;;2.97;;
13985;SDS011;7067;51.832;8.296;2022-09-13T05:18:45;3.30;;;3.10;;
13985;SDS011;7067;51.832;8.296;2022-09-13T05:21:10;4.93;;;2.63;;
13985;SDS011;7067;51.832;8.296;2022-09-13T05:23:36;2.88;;;2.67;;
13985;SDS011;7067;51.832;8.296;2022-09-13T05:26:02;2.80;;;2.60;;
13985;SDS011;7067;51.832;8.296;2022-09-13T05:28:29;4.38;;;2.80;;
13985;SDS011;7067;51.832;8.296;2022-09-13T05:30:57;3.38;;;2.47;;
13985;SDS011;7067;51.832;8.296;2022-09-13T05:33:24;4.00;;;2.60;;
13985;SDS011;7067;51.832;8.296;2022-09-13T05:35:50;4.65;;;3.53;;
13985;SDS011;7067;51.832;8.296;2022-09-13T05:38:16;5.30;;;3.70;;
13985;SDS011;7067;51.832;8.296;2022-09-13T05:40:41;3.35;;;3.10;;
13985;SDS011;7067;51.832;8.296;2022-09-13T05:43:06;7.68;;;3.90;;
13985;SDS011;7067;51.832;8.296;2022-09-13T05:45:32;5.85;;;4.03;;
13985;SDS011;7067;51.832;8.296;2022-09-13T05:47:57;5.53;;;4.22;;
13985;SDS011;7067;51.832;8.296;2022-09-13T05:50:23;5.25;;;4.80;;
13985;SDS011;7067;51.832;8.296;2022-09-13T05:52:52;4.95;;;4.25;;
13985;SDS011;7067;51.832;8.296;2022-09-13T05:55:19;5.25;;;4.75;;
13985;SDS011;7067;51.832;8.296;2022-09-13T05:57:46;5.78;;;5.28;;
13985;SDS011;7067;51.832;8.296;2022-09-13T06:00:11;5.75;;;5.10;;
13985;SDS011;7067;51.832;8.296;2022-09-13T06:02:37;5.32;;;4.93;;
13985;SDS011;7067;51.832;8.296;2022-09-13T06:05:02;6.22;;;5.82;;
13985;SDS011;7067;51.832;8.296;2022-09-13T06:07:28;5.32;;;4.93;;
13985;SDS011;7067;51.832;8.296;2022-09-13T06:09:53;5.43;;;5.07;;
13985;SDS011;7067;51.832;8.296;2022-09-13T06:12:19;6.35;;;5.75;;
13985;SDS011;7067;51.832;8.296;2022-09-13T06:14:44;6.40;;;5.80;;
13985;SDS011;7067;51.832;8.296;2022-09-13T06:17:09;6.15;;;5.57;;
13985;SDS011;7067;51.832;8.296;2022-09-13T06:19:35;6.15;;;5.55;;
13985;SDS011;7067;51.832;8.296;2022-09-13T06:22:00;6.47;;;5.18;;
13985;SDS011;7067;51.832;8.296;2022-09-13T06:24:25;6.85;;;6.20;;
13985;SDS011;7067;51.832;8.296;2022-09-13T06:26:51;6.30;;;5.70;;
13985;SDS011;7067;51.832;8.296;2022-09-13T06:31:57;6.10;;;5.18;;
13985;SDS011;7067;51.832;8.296;2022-09-13T06:34:22;8.82;;;5.32;;
13985;SDS011;7067;51.832;8.296;2022-09-13T06:36:48;5.65;;;5.15;;
13985;SDS011;7067;51.832;8.296;2022-09-13T06:39:13;6.70;;;6.15;;
13985;SDS011;7067;51.832;8.296;2022-09-13T06:41:38;6.00;;;5.40;;
13985;SDS011;7067;51.832;8.296;2022-09-13T06:44:04;5.47;;;4.80;;
13985;SDS011;7067;51.832;8.296;2022-09-13T06:46:30;6.38;;;5.28;;
13985;SDS011;7067;51.832;8.296;2022-09-13T06:48:58;6.07;;;4.72;;
13985;SDS011;7067;51.832;8.296;2022-09-13T06:51:24;4.65;;;4.35;;
13985;SDS011;7067;51.832;8.296;2022-09-13T06:53:50;9.48;;;5.78;;
13985;SDS011;7067;51.832;8.296;2022-09-13T06:56:17;5.07;;;3.50;;
13985;SDS011;7067;51.832;8.296;2022-09-13T06:58:44;4.00;;;3.70;;
13985;SDS011;7067;51.832;8.296;2022-09-13T07:01:12;3.28;;;2.95;;
13985;SDS011;7067;51.832;8.296;2022-09-13T07:04:01;4.63;;;2.55;;
13985;SDS011;7067;51.832;8.296;2022-09-13T07:06:29;3.65;;;2.70;;
13985;SDS011;7067;51.832;8.296;2022-09-13T07:08:57;4.35;;;2.97;;
13985;SDS011;7067;51.832;8.296;2022-09-13T07:11:24;3.50;;;2.65;;
13985;SDS011;7067;51.832;8.296;2022-09-13T07:13:53;5.78;;;3.10;;
13985;SDS011;7067;51.832;8.296;2022-09-13T07:16:20;6.00;;;2.83;;
13985;SDS011;7067;51.832;8.296;2022-09-13T07:18:54;5.57;;;3.22;;
13985;SDS011;7067;51.832;8.296;2022-09-13T07:21:21;4.80;;;3.65;;
13985;SDS011;7067;51.832;8.296;2022-09-13T07:23:47;3.63;;;3.33;;
13985;SDS011;7067;51.832;8.296;2022-09-13T07:26:13;9.15;;;3.42;;
13985;SDS011;7067;51.832;8.296;2022-09-13T07:28:42;5.63;;;3.70;;
13985;SDS011;7067;51.832;8.296;2022-09-13T07:31:13;3.67;;;3.38;;
13985;SDS011;7067;51.832;8.296;2022-09-13T07:33:40;4.03;;;3.72;;
13985;SDS011;7067;51.832;8.296;2022-09-13T07:36:06;5.20;;;3.60;;
13985;SDS011;7067;51.832;8.296;2022-09-13T07:38:35;5.40;;;3.30;;
13985;SDS011;7067;51.832;8.296;2022-09-13T07:41:02;4.13;;;3.45;;
13985;SDS011;7067;51.832;8.296;2022-09-13T07:43:31;5.22;;;3.60;;
13985;SDS011;7067;51.832;8.296;2022-09-13T07:45:58;7.47;;;4.28;;
13985;SDS011;7067;51.832;8.296;2022-09-13T07:48:25;5.60;;;3.53;;
13985;SDS011;7067;51.832;8.296;2022-09-13T07:50:58;8.30;;;3.95;;
13985;SDS011;7067;51.832;8.296;2022-09-13T07:53:24;5.57;;;4.47;;
13985;SDS011;7067;51.832;8.296;2022-09-13T07:55:50;7.78;;;4.00;;
13985;SDS011;7067;51.832;8.296;2022-09-13T07:58:15;6.47;;;4.00;;
13985;SDS011;7067;51.832;8.296;2022-09-13T08:00:41;5.25;;;4.47;;
13985;SDS011;7067;51.832;8.296;2022-09-13T08:03:06;6.32;;;4.75;;
13985;SDS011;7067;51.832;8.296;2022-09-13T08:05:32;9.15;;;5.35;;
13985;SDS011;7067;51.832;8.296;2022-09-13T08:08:03;4.60;;;3.80;;
13985;SDS011;7067;51.832;8.296;2022-09-13T08:10:28;6.65;;;4.28;;
13985;SDS011;7067;51.832;8.296;2022-09-13T08:12:53;5.40;;;4.78;;
13985;SDS011;7067;51.832;8.296;2022-09-13T08:15:19;8.13;;;5.03;;
13985;SDS011;7067;51.832;8.296;2022-09-13T08:17:44;5.63;;;4.63;;
13985;SDS011;7067;51.832;8.296;2022-09-13T08:20:09;7.65;;;5.28;;
13985;SDS011;7067;51.832;8.296;2022-09-13T08:22:35;4.45;;;4.20;;
13985;SDS011;7067;51.832;8.296;2022-09-13T08:25:00;6.07;;;4.25;;
13985;SDS011;7067;51.832;8.296;2022-09-13T08:27:26;7.15;;;4.80;;
13985;SDS011;7067;51.832;8.296;2022-09-13T08:29:52;5.95;;;4.95;;
13985;SDS011;7067;51.832;8.296;2022-09-13T08:32:17;9.60;;;5.30;;
13985;SDS011;7067;51.832;8.296;2022-09-13T08:34:43;6.03;;;5.53;;
13985;SDS011;7067;51.832;8.296;2022-09-13T08:37:08;7.10;;;5.03;;
13985;SDS011;7067;51.832;8.296;2022-09-13T08:39:34;7.22;;;4.95;;
13985;SDS011;7067;51.832;8.296;2022-09-13T08:42:05;6.30;;;5.07;;
13985;SDS011;7067;51.832;8.296;2022-09-13T08:44:57;6.20;;;5.03;;
13985;SDS011;7067;51.832;8.296;2022-09-13T08:49:55;6.65;;;5.72;;
13985;SDS011;7067;51.832;8.296;2022-09-13T08:52:28;8.13;;;5.63;;
13985;SDS011;7067;51.832;8.296;2022-09-13T08:55:00;6.57;;;5.88;;
13985;SDS011;7067;51.832;8.296;2022-09-13T08:57:31;7.15;;;6.55;;
13985;SDS011;7067;51.832;8.296;2022-09-13T09:00:03;7.38;;;6.35;;
13985;SDS011;7067;51.832;8.296;2022-09-13T09:05:51;13.75;;;7.95;;
13985;SDS011;7067;51.832;8.296;2022-09-13T09:08:29;7.85;;;7.03;;
13985;SDS011;7067;51.832;8.296;2022-09-13T09:10:58;8.07;;;6.97;;
13985;SDS011;7067;51.832;8.296;2022-09-13T09:13:34;9.20;;;7.75;;
13985;SDS011;7067;51.832;8.296;2022-09-13T09:18:46;8.90;;;8.07;;
13985;SDS011;7067;51.832;8.296;2022-09-13T09:21:15;12.25;;;8.65;;
13985;SDS011;7067;51.832;8.296;2022-09-13T09:28:49;14.52;;;10.30;;
13985;SDS011;7067;51.832;8.296;2022-09-13T09:36:57;15.82;;;11.18;;
13985;SDS011;7067;51.832;8.296;2022-09-13T09:39:28;15.95;;;13.82;;
13985;SDS011;7067;51.832;8.296;2022-09-13T09:41:56;19.13;;;14.23;;
13985;SDS011;7067;51.832;8.296;2022-09-13T09:44:23;15.98;;;14.32;;
13985;SDS011;7067;51.832;8.296;2022-09-13T09:46:59;17.45;;;13.82;;
13985;SDS011;7067;51.832;8.296;2022-09-13T09:49:38;15.38;;;13.85;;
13985;SDS011;7067;51.832;8.296;2022-09-13T09:57:59;17.35;;;13.68;;
13985;SDS011;7067;51.832;8.296;2022-09-13T10:00:30;18.20;;;13.30;;
13985;SDS011;7067;51.832;8.296;2022-09-13T10:03:02;14.52;;;12.10;;
13985;SDS011;7067;51.832;8.296;2022-09-13T10:05:29;14.65;;;13.23;;
13985;SDS011;7067;51.832;8.296;2022-09-13T10:08:00;19.73;;;13.40;;
13985;SDS011;7067;51.832;8.296;2022-09-13T10:13:03;14.05;;;12.63;;
13985;SDS011;7067;51.832;8.296;2022-09-13T10:15:31;15.80;;;12.23;;
13985;SDS011;7067;51.832;8.296;2022-09-13T10:20:32;13.18;;;10.98;;
13985;SDS011;7067;51.832;8.296;2022-09-13T10:23:11;11.40;;;10.30;;
13985;SDS011;7067;51.832;8.296;2022-09-13T10:25:43;10.32;;;9.43;;
13985;SDS011;7067;51.832;8.296;2022-09-13T10:28:19;12.20;;;9.35;;
13985;SDS011;7067;51.832;8.296;2022-09-13T10:30:46;9.88;;;8.90;;
13985;SDS011;7067;51.832;8.296;2022-09-13T10:33:38;14.15;;;9.02;;
13985;SDS011;7067;51.832;8.296;2022-09-13T10:36:06;10.18;;;7.70;;
13985;SDS011;7067;51.832;8.296;2022-09-13T10:38:38;11.95;;;8.18;;
13985;SDS011;7067;51.832;8.296;2022-09-13T10:41:05;12.82;;;6.57;;
13985;SDS011;7067;51.832;8.296;2022-09-13T10:43:32;6.63;;;6.00;;
13985;SDS011;7067;51.832;8.296;2022-09-13T10:45:58;7.20;;;6.50;;
13985;SDS011;7067;51.832;8.296;2022-09-13T10:48:25;9.68;;;7.03;;
13985;SDS011;7067;51.832;8.296;2022-09-13T10:51:06;7.60;;;6.22;;
13985;SDS011;7067;51.832;8.296;2022-09-13T10:53:39;6.72;;;6.05;;
13985;SDS011;7067;51.832;8.296;2022-09-13T10:56:08;6.47;;;5.97;;
13985;SDS011;7067;51.832;8.296;2022-09-13T10:58:44;6.32;;;5.72;;
13985;SDS011;7067;51.832;8.296;2022-09-13T11:01:20;7.85;;;5.03;;
13985;SDS011;7067;51.832;8.296;2022-09-13T11:06:47;5.60;;;4.97;;
13985;SDS011;7067;51.832;8.296;2022-09-13T11:09:24;5.75;;;5.22;;
13985;SDS011;7067;51.832;8.296;2022-09-13T11:12:38;6.45;;;5.82;;
13985;SDS011;7067;51.832;8.296;2022-09-13T11:15:09;7.90;;;5.15;;
13985;SDS011;7067;51.832;8.296;2022-09-13T11:23:07;6.30;;;5.53;;
13985;SDS011;7067;51.832;8.296;2022-09-13T11:39:30;7.57;;;5.85;;
13985;SDS011;7067;51.832;8.296;2022-09-13T11:47:05;6.55;;;5.93;;
13985;SDS011;7067;51.832;8.296;2022-09-13T11:49:44;8.02;;;6.20;;
13985;SDS011;7067;51.832;8.296;2022-09-13T11:57:39;6.43;;;5.82;;
13985;SDS011;7067;51.832;8.296;2022-09-13T12:00:18;6.35;;;5.55;;
13985;SDS011;7067;51.832;8.296;2022-09-13T12:03:37;6.15;;;5.55;;
13985;SDS011;7067;51.832;8.296;2022-09-13T12:05:56;8.43;;;5.70;;
13985;SDS011;7067;51.832;8.296;2022-09-13T12:10:55;5.60;;;4.78;;
13985;SDS011;7067;51.832;8.296;2022-09-13T12:13:34;7.10;;;4.95;;
13985;SDS011;7067;51.832;8.296;2022-09-13T12:16:02;5.90;;;5.22;;
13985;SDS011;7067;51.832;8.296;2022-09-13T12:18:38;6.03;;;5.47;;
13985;SDS011;7067;51.832;8.296;2022-09-13T12:21:06;7.90;;;4.03;;
13985;SDS011;7067;51.832;8.296;2022-09-13T12:23:35;8.18;;;4.28;;
13985;SDS011;7067;51.832;8.296;2022-09-13T12:26:08;4.30;;;3.58;;
13985;SDS011;7067;51.832;8.296;2022-09-13T12:28:42;4.68;;;4.10;;
13985;SDS011;7067;51.832;8.296;2022-09-13T12:31:10;5.88;;;4.53;;
13985;SDS011;7067;51.832;8.296;2022-09-13T12:33:40;5.65;;;4.75;;
13985;SDS011;7067;51.832;8.296;2022-09-13T12:38:46;6.57;;;4.80;;
13985;SDS011;7067;51.832;8.296;2022-09-13T12:49:23;6.15;;;5.07;;
13985;SDS011;7067;51.832;8.296;2022-09-13T12:57:43;4.97;;;4.07;;
13985;SDS011;7067;51.832;8.296;2022-09-13T13:05:24;5.78;;;4.22;;
13985;SDS011;7067;51.832;8.296;2022-09-13T13:08:00;5.25;;;4.75;;
13985;SDS011;7067;51.832;8.296;2022-09-13T13:10:29;5.03;;;3.72;;
13985;SDS011;7067;51.832;8.296;2022-09-13T13:13:08;5.32;;;4.85;;
13985;SDS011;7067;51.832;8.296;2022-09-13T13:18:19;6.30;;;4.63;;
13985;SDS011;7067;51.832;8.296;2022-09-13T13:34:00;4.65;;;4.15;;
13985;SDS011;7067;51.832;8.296;2022-09-13T13:39:00;6.75;;;5.45;;
13985;SDS011;7067;51.832;8.296;2022-09-13T13:44:01;9.52;;;6.68;;
13985;SDS011;7067;51.832;8.296;2022-09-13T13:46:46;8.48;;;6.20;;
13985;SDS011;7067;51.832;8.296;2022-09-13T14:08:01;5.22;;;4.70;;
13985;SDS011;7067;51.832;8.296;2022-09-13T14:10:35;6.68;;;5.60;;
13985;SDS011;7067;51.832;8.296;2022-09-13T14:15:57;6.03;;;5.30;;
13985;SDS011;7067;51.832;8.296;2022-09-13T14:21:02;7.18;;;6.45;;
13985;SDS011;7067;51.832;8.296;2022-09-13T14:23:44;10.10;;;5.78;;
13985;SDS011;7067;51.832;8.296;2022-09-13T14:26:09;6.30;;;5.70;;
13985;SDS011;7067;51.832;8.296;2022-09-13T14:28:35;9.40;;;5.93;;
13985;SDS011;7067;51.832;8.296;2022-09-13T14:31:01;11.68;;;5.78;;
13985;SDS011;7067;51.832;8.296;2022-09-13T14:33:28;7.90;;;5.88;;
13985;SDS011;7067;51.832;8.296;2022-09-13T14:35:56;6.57;;;5.97;;
13985;SDS011;7067;51.832;8.296;2022-09-13T14:38:24;6.25;;;5.72;;
13985;SDS011;7067;51.832;8.296;2022-09-13T14:40:57;6.18;;;5.25;;
13985;SDS011;7067;51.832;8.296;2022-09-13T14:43:27;9.77;;;6.80;;
13985;SDS011;7067;51.832;8.296;2022-09-13T14:46:15;8.05;;;5.30;;
13985;SDS011;7067;51.832;8.296;2022-09-13T14:48:48;10.55;;;5.55;;
13985;SDS011;7067;51.832;8.296;2022-09-13T14:51:23;7.75;;;5.40;;
13985;SDS011;7067;51.832;8.296;2022-09-13T14:56:50;6.47;;;5.85;;
13985;SDS011;7067;51.832;8.296;2022-09-13T15:00:03;6.78;;;4.93;;
13985;SDS011;7067;51.832;8.296;2022-09-13T15:02:15;5.38;;;4.93;;
13985;SDS011;7067;51.832;8.296;2022-09-13T15:04:44;5.53;;;4.47;;
13985;SDS011;7067;51.832;8.296;2022-09-13T15:07:29;6.28;;;4.63;;
13985;SDS011;7067;51.832;8.296;2022-09-13T15:18:04;5.43;;;4.68;;
13985;SDS011;7067;51.832;8.296;2022-09-13T15:23:14;4.40;;;4.10;;
13985;SDS011;7067;51.832;8.296;2022-09-13T15:25:53;7.28;;;4.13;;
13985;SDS011;7067;51.832;8.296;2022-09-13T15:28:21;4.78;;;4.28;;
13985;SDS011;7067;51.832;8.296;2022-09-13T15:30:48;4.70;;;3.65;;
13985;SDS011;7067;51.832;8.296;2022-09-13T15:33:18;4.15;;;3.58;;
13985;SDS011;7067;51.832;8.296;2022-09-13T15:35:47;4.47;;;4.03;;
13985;SDS011;7067;51.832;8.296;2022-09-13T15:38:31;5.53;;;3.67;;
13985;SDS011;7067;51.832;8.296;2022-09-13T15:41:00;3.30;;;2.75;;
13985;SDS011;7067;51.832;8.296;2022-09-13T15:43:26;3.80;;;2.88;;
13985;SDS011;7067;51.832;8.296;2022-09-13T15:45:52;3.08;;;2.88;;
13985;SDS011;7067;51.832;8.296;2022-09-13T15:48:22;4.32;;;2.95;;
13985;SDS011;7067;51.832;8.296;2022-09-13T15:51:12;3.90;;;2.70;;
13985;SDS011;7067;51.832;8.296;2022-09-13T15:53:40;7.73;;;2.90;;
13985;SDS011;7067;51.832;8.296;2022-09-13T15:56:07;3.95;;;3.10;;
13985;SDS011;7067;51.832;8.296;2022-09-13T15:58:34;2.25;;;2.10;;
13985;SDS011;7067;51.832;8.296;2022-09-13T16:01:00;3.95;;;2.53;;
13985;SDS011;7067;51.832;8.296;2022-09-13T16:03:25;8.45;;;2.72;;
13985;SDS011;7067;51.832;8.296;2022-09-13T16:05:50;3.42;;;2.63;;
13985;SDS011;7067;51.832;8.296;2022-09-13T16:08:16;5.00;;;2.80;;
13985;SDS011;7067;51.832;8.296;2022-09-13T16:10:41;3.15;;;2.40;;
13985;SDS011;7067;51.832;8.296;2022-09-13T16:13:06;3.80;;;2.20;;
13985;SDS011;7067;51.832;8.296;2022-09-13T16:15:32;4.93;;;2.00;;
13985;SDS011;7067;51.832;8.296;2022-09-13T16:17:58;3.15;;;2.17;;
13985;SDS011;7067;51.832;8.296;2022-09-13T16:20:23;3.03;;;2.28;;
13985;SDS011;7067;51.832;8.296;2022-09-13T16:22:52;2.92;;;2.60;;
13985;SDS011;7067;51.832;8.296;2022-09-13T16:25:17;2.50;;;2.30;;
13985;SDS011;7067;51.832;8.296;2022-09-13T16:27:43;3.85;;;2.30;;
13985;SDS011;7067;51.832;8.296;2022-09-13T16:30:12;4.70;;;2.35;;
13985;SDS011;7067;51.832;8.296;2022-09-13T16:32:39;4.22;;;2.22;;
13985;SDS011;7067;51.832;8.296;2022-09-13T16:35:05;2.60;;;1.92;;
13985;SDS011;7067;51.832;8.296;2022-09-13T16:37:31;2.63;;;2.40;;
13985;SDS011;7067;51.832;8.296;2022-09-13T16:39:57;4.78;;;2.50;;
13985;SDS011;7067;51.832;8.296;2022-09-13T16:42:22;4.88;;;2.10;;
13985;SDS011;7067;51.832;8.296;2022-09-13T16:44:47;3.60;;;2.60;;
13985;SDS011;7067;51.832;8.296;2022-09-13T16:47:13;3.20;;;2.40;;
13985;SDS011;7067;51.832;8.296;2022-09-13T16:49:38;2.08;;;1.85;;
13985;SDS011;7067;51.832;8.296;2022-09-13T16:52:03;4.18;;;2.05;;
13985;SDS011;7067;51.832;8.296;2022-09-13T16:54:29;3.20;;;2.13;;
13985;SDS011;7067;51.832;8.296;2022-09-13T16:56:55;2.88;;;2.42;;
13985;SDS011;7067;51.832;8.296;2022-09-13T16:59:21;4.85;;;2.35;;
13985;SDS011;7067;51.832;8.296;2022-09-13T17:01:46;3.53;;;2.08;;
13985;SDS011;7067;51.832;8.296;2022-09-13T17:04:12;2.70;;;1.90;;
13985;SDS011;7067;51.832;8.296;2022-09-13T17:06:37;2.00;;;1.77;;
13985;SDS011;7067;51.832;8.296;2022-09-13T17:09:03;3.97;;;1.73;;
13985;SDS011;7067;51.832;8.296;2022-09-13T17:11:30;1.90;;;1.80;;
13985;SDS011;7067;51.832;8.296;2022-09-13T17:13:57;2.05;;;1.58;;
13985;SDS011;7067;51.832;8.296;2022-09-13T17:18:53;4.45;;;1.83;;
13985;SDS011;7067;51.832;8.296;2022-09-13T17:21:21;4.20;;;2.17;;
13985;SDS011;7067;51.832;8.296;2022-09-13T17:23:47;4.50;;;2.25;;
13985;SDS011;7067;51.832;8.296;2022-09-13T17:26:12;2.42;;;1.45;;
13985;SDS011;7067;51.832;8.296;2022-09-13T17:28:38;3.47;;;2.20;;
13985;SDS011;7067;51.832;8.296;2022-09-13T17:31:03;4.47;;;1.92;;
13985;SDS011;7067;51.832;8.296;2022-09-13T17:33:29;2.92;;;2.10;;
13985;SDS011;7067;51.832;8.296;2022-09-13T17:35:58;3.08;;;2.20;;
13985;SDS011;7067;51.832;8.296;2022-09-13T17:38:24;2.83;;;2.10;;
13985;SDS011;7067;51.832;8.296;2022-09-13T17:40:59;2.85;;;2.60;;
13985;SDS011;7067;51.832;8.296;2022-09-13T17:43:26;6.95;;;3.67;;
13985;SDS011;7067;51.832;8.296;2022-09-13T17:45:51;10.82;;;4.32;;
13985;SDS011;7067;51.832;8.296;2022-09-13T17:48:16;7.80;;;4.40;;
13985;SDS011;7067;51.832;8.296;2022-09-13T17:50:42;8.35;;;4.65;;
13985;SDS011;7067;51.832;8.296;2022-09-13T17:53:07;11.05;;;4.63;;
13985;SDS011;7067;51.832;8.296;2022-09-13T17:55:33;8.60;;;3.22;;
13985;SDS011;7067;51.832;8.296;2022-09-13T17:57:58;6.85;;;3.22;;
13985;SDS011;7067;51.832;8.296;2022-09-13T18:00:23;4.47;;;2.90;;
13985;SDS011;7067;51.832;8.296;2022-09-13T18:02:49;11.60;;;2.80;;
13985;SDS011;7067;51.832;8.296;2022-09-13T18:05:14;4.15;;;2.10;;
13985;SDS011;7067;51.832;8.296;2022-09-13T18:07:39;6.60;;;1.92;;
13985;SDS011;7067;51.832;8.296;2022-09-13T18:10:05;4.28;;;1.90;;
13985;SDS011;7067;51.832;8.296;2022-09-13T18:12:32;3.00;;;2.17;;
13985;SDS011;7067;51.832;8.296;2022-09-13T18:14:57;4.05;;;1.20;;
13985;SDS011;7067;51.832;8.296;2022-09-13T18:17:23;5.47;;;1.60;;
13985;SDS011;7067;51.832;8.296;2022-09-13T18:19:48;2.97;;;1.67;;
13985;SDS011;7067;51.832;8.296;2022-09-13T18:22:14;3.33;;;2.03;;
13985;SDS011;7067;51.832;8.296;2022-09-13T18:24:39;3.00;;;2.10;;
13985;SDS011;7067;51.832;8.296;2022-09-13T18:27:04;2.92;;;2.35;;
13985;SDS011;7067;51.832;8.296;2022-09-13T18:29:30;2.03;;;1.77;;
13985;SDS011;7067;51.832;8.296;2022-09-13T18:31:57;3.33;;;2.05;;
13985;SDS011;7067;51.832;8.296;2022-09-13T18:34:22;3.70;;;2.00;;